Time;durP1;ratioP1;P1;durP2;ratioP2;P2;SDS_P1;SDS_P2;PMS_P1;PMS_P2;Temp;Humidity;BMP_temperature;BMP_pressure;BME280_temperature;BME280_humidity;BME280_pressure;Samples;Min_cycle;Max_cycle;Signal;HPM_P1;HPM_P2
2023/04/21 00:00:37;;;;;;;33.40;16.90;;;;;;;7.79;59.99;100567.64;130865;1258;105699;-77
2023/04/21 00:03:56;;;;;;;25.20;14.80;;;;;;;7.73;60.32;100569.95;130903;1265;107511;-78
2023/04/21 00:07:03;;;;;;;22.60;13.50;;;;;;;7.65;60.31;100565.08;130884;1259;108113;-75
2023/04/21 00:10:10;;;;;;;23.10;13.60;;;;;;;7.59;60.51;100570.19;130876;1258;107519;-76
2023/04/21 00:13:16;;;;;;;20.50;13.80;;;;;;;7.51;60.44;100565.70;130905;1264;107541;-77
2023/04/21 00:16:21;;;;;;;23.30;15.30;;;;;;;7.43;60.80;100569.00;130887;1258;107292;-75
2023/04/21 00:19:27;;;;;;;19.20;13.40;;;;;;;7.37;60.78;100571.76;130926;1266;107571;-76
2023/04/21 00:22:33;;;;;;;18.70;12.70;;;;;;;7.31;60.84;100574.25;130831;1258;107245;-77
2023/04/21 00:25:38;;;;;;;20.60;13.40;;;;;;;7.24;60.86;100569.46;130872;1255;107558;-76
2023/04/21 00:28:44;;;;;;;18.60;12.80;;;;;;;7.17;60.97;100566.31;130897;1259;105437;-76
2023/04/21 00:31:49;;;;;;;19.10;12.80;;;;;;;7.11;61.26;100566.33;130907;1257;107290;-76
2023/04/21 00:34:55;;;;;;;20.50;11.70;;;;;;;7.01;61.07;100565.15;130909;1265;107452;-77
2023/04/21 00:38:00;;;;;;;18.00;12.30;;;;;;;6.97;61.29;100560.83;130904;1267;107378;-76
2023/04/21 00:41:06;;;;;;;16.30;10.50;;;;;;;6.96;61.73;100559.14;130800;1251;107528;-76
2023/04/21 00:44:12;;;;;;;17.60;11.80;;;;;;;6.97;61.61;100562.49;130875;1258;105488;-76
2023/04/21 00:47:17;;;;;;;14.90;11.10;;;;;;;6.97;61.64;100556.08;130880;1257;107465;-76
2023/04/21 00:50:23;;;;;;;16.20;11.40;;;;;;;7.00;61.41;100557.27;130832;1258;107578;-76
2023/04/21 00:53:29;;;;;;;21.70;11.00;;;;;;;6.98;61.90;100556.05;130634;1258;107549;-76
2023/04/21 00:56:35;;;;;;;16.50;12.00;;;;;;;6.95;61.87;100555.20;130756;1268;107625;-76
2023/04/21 00:59:42;;;;;;;35.40;20.60;;;;;;;6.93;62.14;100552.66;130749;1267;107452;-78
2023/04/21 01:02:48;;;;;;;33.20;19.80;;;;;;;6.90;61.83;100549.08;130907;1257;107381;-77
2023/04/21 01:05:53;;;;;;;44.30;24.90;;;;;;;6.86;62.01;100549.52;130841;1257;107635;-77
2023/04/21 01:08:59;;;;;;;45.40;26.10;;;;;;;6.82;62.17;100556.43;130838;1257;107398;-78
2023/04/21 01:12:07;;;;;;;41.10;24.00;;;;;;;6.76;62.07;100554.20;130893;1257;105765;-76
2023/04/21 01:15:15;;;;;;;34.90;19.80;;;;;;;6.71;62.15;100553.89;130849;1253;107995;-75
2023/04/21 01:18:20;;;;;;;27.80;16.30;;;;;;;6.65;62.21;100551.36;130995;1258;107554;-75
2023/04/21 01:21:30;;;;;;;20.80;13.50;;;;;;;6.58;62.24;100555.30;130975;1256;106448;-76
2023/04/21 01:24:41;;;;;;;18.70;13.00;;;;;;;6.51;62.01;100554.56;130725;1259;107387;-76
2023/04/21 01:27:50;;;;;;;20.30;12.60;;;;;;;6.45;62.50;100552.56;130912;1257;107413;-77
2023/04/21 01:30:59;;;;;;;19.50;12.50;;;;;;;6.40;62.32;100551.19;130980;1257;106464;-77
2023/04/21 01:34:06;;;;;;;21.80;12.70;;;;;;;6.32;62.36;100553.52;130832;1264;107394;-77
2023/04/21 01:37:13;;;;;;;22.90;13.00;;;;;;;6.27;62.56;100550.61;131019;1257;107593;-77
2023/04/21 01:40:19;;;;;;;21.90;13.10;;;;;;;6.23;62.82;100550.73;130979;1257;107411;-77
2023/04/21 01:43:26;;;;;;;21.60;14.00;;;;;;;6.20;62.80;100549.71;130946;1268;107224;-77
2023/04/21 01:46:31;;;;;;;37.40;19.00;;;;;;;6.16;63.12;100548.44;130906;1264;107530;-77
2023/04/21 01:49:37;;;;;;;31.20;17.50;;;;;;;6.09;62.87;100550.20;131022;1257;107346;-77
2023/04/21 01:52:42;;;;;;;40.50;23.60;;;;;;;6.04;63.26;100550.23;130817;1264;107509;-78
2023/04/21 01:55:48;;;;;;;30.10;17.30;;;;;;;6.01;63.11;100548.36;131157;1251;107525;-78
2023/04/21 01:58:53;;;;;;;22.20;14.10;;;;;;;5.96;63.16;100551.32;131395;1256;107224;-78
2023/04/21 02:01:59;;;;;;;18.70;11.70;;;;;;;5.90;63.47;100547.70;131371;1267;105916;-77
2023/04/21 02:05:05;;;;;;;23.80;11.30;;;;;;;5.87;63.39;100550.23;130807;1253;107236;-78
2023/04/21 02:08:11;;;;;;;18.80;10.90;;;;;;;5.86;63.46;100550.48;130617;1260;108352;-77
2023/04/21 02:11:19;;;;;;;18.70;10.80;;;;;;;5.88;63.42;100547.31;130859;1266;107408;-77
2023/04/21 02:14:25;;;;;;;16.30;11.30;;;;;;;5.89;63.31;100551.33;130818;1266;107450;-77
2023/04/21 02:17:31;;;;;;;18.60;12.00;;;;;;;5.89;63.46;100550.23;130850;1257;107211;-76
2023/04/21 02:20:37;;;;;;;18.90;12.40;;;;;;;5.88;63.35;100551.71;130749;1260;107500;-77
2023/04/21 02:23:43;;;;;;;19.00;12.10;;;;;;;5.87;63.48;100554.08;130732;1266;107426;-76
2023/04/21 02:26:48;;;;;;;24.10;13.80;;;;;;;5.84;63.58;100555.73;130751;1255;107535;-76
2023/04/21 02:29:54;;;;;;;33.70;17.20;;;;;;;5.80;63.43;100554.79;130837;1258;107281;-77
2023/04/21 02:32:59;;;;;;;23.50;15.10;;;;;;;5.76;63.70;100554.77;131036;1254;107460;-78
2023/04/21 02:36:06;;;;;;;34.90;18.50;;;;;;;5.70;63.39;100555.35;130800;1258;107550;-77
2023/04/21 02:39:11;;;;;;;43.40;21.60;;;;;;;5.67;63.65;100556.89;130733;1255;107457;-80
2023/04/21 02:42:17;;;;;;;25.20;14.80;;;;;;;5.61;63.63;100565.40;130772;1267;107554;-78
2023/04/21 02:45:22;;;;;;;22.60;13.20;;;;;;;5.55;63.82;100569.40;130755;1255;107629;-77
2023/04/21 02:48:29;;;;;;;26.40;14.80;;;;;;;5.49;63.75;100564.66;130833;1255;107383;-78
2023/04/21 02:51:35;;;;;;;23.40;13.10;;;;;;;5.44;63.71;100563.67;130671;1260;105887;-78
2023/04/21 02:54:41;;;;;;;20.50;12.70;;;;;;;5.38;63.75;100561.79;130788;1258;107508;-76
2023/04/21 02:57:47;;;;;;;23.50;13.30;;;;;;;5.34;63.78;100560.16;130701;1258;107449;-79
2023/04/21 03:00:53;;;;;;;21.90;12.60;;;;;;;5.29;63.93;100562.41;130832;1260;105992;-78
2023/04/21 03:03:58;;;;;;;21.00;13.60;;;;;;;5.25;63.82;100564.14;130780;1266;107289;-77
2023/04/21 03:07:04;;;;;;;23.90;15.50;;;;;;;5.19;63.91;100564.06;130858;1254;107232;-77
2023/04/21 03:10:11;;;;;;;21.40;15.30;;;;;;;5.15;64.12;100562.05;130863;1254;107477;-77
2023/04/21 03:13:16;;;;;;;28.70;18.60;;;;;;;5.09;64.07;100560.86;130829;1259;107528;-77
2023/04/21 03:16:23;;;;;;;31.80;18.80;;;;;;;5.04;64.11;100557.74;130780;1265;107455;-77
2023/04/21 03:19:30;;;;;;;55.90;26.60;;;;;;;5.01;64.30;100562.36;130886;1263;107412;-78
2023/04/21 03:22:35;;;;;;;54.10;26.00;;;;;;;4.97;64.23;100561.20;130661;1257;107289;-77
2023/04/21 03:25:41;;;;;;;73.00;33.20;;;;;;;4.94;64.33;100562.65;130800;1266;107523;-77
2023/04/21 03:28:46;;;;;;;67.00;32.80;;;;;;;4.92;64.38;100562.42;130774;1259;107451;-77
2023/04/21 03:31:52;;;;;;;48.90;28.30;;;;;;;4.93;64.35;100561.48;130638;1266;107494;-78
2023/04/21 03:34:57;;;;;;;37.00;20.90;;;;;;;4.99;64.43;100561.98;130834;1265;107441;-77
2023/04/21 03:38:03;;;;;;;36.00;22.70;;;;;;;5.02;64.16;100556.08;130885;1257;107548;-77
2023/04/21 03:41:09;;;;;;;32.10;20.60;;;;;;;5.06;64.19;100555.84;130836;1257;107425;-78
2023/04/21 03:44:14;;;;;;;25.80;19.00;;;;;;;5.11;64.22;100558.09;130869;1255;107223;-78
2023/04/21 03:47:20;;;;;;;25.30;17.20;;;;;;;5.13;64.37;100554.48;130909;1259;106019;-78
2023/04/21 03:50:25;;;;;;;24.60;14.70;;;;;;;5.13;64.45;100550.56;130858;1256;107574;-78
2023/04/21 03:53:31;;;;;;;29.30;15.50;;;;;;;5.14;64.57;100550.31;130872;1258;107559;-77
2023/04/21 03:56:37;;;;;;;33.10;16.40;;;;;;;5.13;64.41;100552.66;130832;1266;107470;-78
2023/04/21 03:59:42;;;;;;;22.00;12.90;;;;;;;5.14;64.44;100561.83;130869;1265;107529;-78
2023/04/21 04:02:49;;;;;;;19.20;11.50;;;;;;;5.12;64.78;100562.98;130839;1254;107485;-79
2023/04/21 04:05:55;;;;;;;17.80;11.20;;;;;;;5.16;64.81;100562.91;130796;1257;107530;-77
2023/04/21 04:09:03;;;;;;;18.10;11.90;;;;;;;5.20;64.86;100567.50;130769;1254;107263;-78
2023/04/21 04:12:09;;;;;;;17.90;12.40;;;;;;;5.27;64.94;100570.86;130738;1257;107474;-79
2023/04/21 04:15:15;;;;;;;22.80;17.30;;;;;;;5.29;65.27;100568.41;130802;1257;107468;-76
2023/04/21 04:18:20;;;;;;;22.00;13.70;;;;;;;5.33;65.26;100572.57;130872;1257;108610;-78
2023/04/21 04:21:26;;;;;;;20.20;13.60;;;;;;;5.42;65.29;100578.11;130848;1256;107599;-73
2023/04/21 04:24:34;;;;;;;23.70;14.60;;;;;;;5.54;65.39;100576.14;130751;1258;106654;-74
2023/04/21 04:27:40;;;;;;;17.70;13.20;;;;;;;5.67;65.49;100574.16;130749;1254;107326;-74
2023/04/21 04:30:45;;;;;;;18.00;12.20;;;;;;;5.78;65.79;100568.77;130679;1257;107519;-74
2023/04/21 04:33:51;;;;;;;18.80;11.80;;;;;;;5.96;65.87;100569.36;130794;1254;107493;-75
2023/04/21 04:36:57;;;;;;;18.50;12.00;;;;;;;6.18;65.70;100564.13;130735;1259;107276;-74
2023/04/21 04:40:05;;;;;;;19.70;12.70;;;;;;;6.46;65.62;100564.70;130716;1257;107569;-74
2023/04/21 04:43:11;;;;;;;18.50;12.60;;;;;;;6.74;65.96;100571.38;130761;1258;105592;-75
2023/04/21 04:46:19;;;;;;;21.50;13.80;;;;;;;6.98;65.99;100572.79;130825;1254;107602;-74
2023/04/21 04:49:24;;;;;;;26.80;16.20;;;;;;;7.23;65.75;100577.36;130999;1257;107755;-74
2023/04/21 04:52:30;;;;;;;23.20;16.10;;;;;;;7.44;65.73;100578.85;130684;1264;107281;-73
2023/04/21 04:55:36;;;;;;;26.30;16.30;;;;;;;7.65;66.30;100575.89;130675;1267;107409;-74
2023/04/21 04:58:41;;;;;;;25.00;17.50;;;;;;;7.87;66.05;100578.54;130732;1254;107538;-73
2023/04/21 05:01:46;;;;;;;23.60;16.20;;;;;;;8.06;66.11;100576.42;130847;1254;107624;-74
2023/04/21 05:04:52;;;;;;;26.10;14.70;;;;;;;8.24;66.17;100578.80;131036;1255;107450;-74
2023/04/21 05:07:57;;;;;;;22.30;15.20;;;;;;;8.39;66.22;100580.21;130867;1258;107393;-74
2023/04/21 05:11:04;;;;;;;22.10;15.10;;;;;;;8.55;66.38;100581.88;130877;1266;106535;-73
2023/04/21 05:14:09;;;;;;;17.70;14.00;;;;;;;8.71;66.50;100576.22;130891;1264;107356;-73
2023/04/21 05:17:15;;;;;;;18.40;13.50;;;;;;;8.88;66.50;100578.61;130873;1256;107489;-76
2023/04/21 05:20:21;;;;;;;19.20;13.10;;;;;;;9.01;66.33;100581.38;130930;1257;106466;-73
2023/04/21 05:23:26;;;;;;;18.30;12.80;;;;;;;9.14;66.19;100583.09;130934;1251;107429;-74
2023/04/21 05:26:32;;;;;;;18.00;13.20;;;;;;;9.28;66.03;100586.16;130917;1251;106548;-74
2023/04/21 05:29:37;;;;;;;20.10;12.00;;;;;;;9.43;65.78;100581.93;130917;1258;106475;-74
2023/04/21 05:32:43;;;;;;;16.40;12.30;;;;;;;9.58;65.41;100584.70;130974;1257;107564;-74
2023/04/21 05:35:48;;;;;;;14.80;11.20;;;;;;;9.74;65.30;100583.59;130992;1251;107233;-74
2023/04/21 05:38:54;;;;;;;15.40;10.40;;;;;;;9.89;64.77;100585.46;131047;1251;107867;-74
2023/04/21 05:41:59;;;;;;;16.40;10.40;;;;;;;10.02;64.78;100584.09;130869;1251;107505;-74
2023/04/21 05:45:06;;;;;;;13.30;9.70;;;;;;;10.12;64.47;100585.12;130873;1256;107403;-75
2023/04/21 05:48:12;;;;;;;12.50;9.40;;;;;;;10.22;63.61;100582.16;130987;1251;107559;-74
2023/04/21 05:51:18;;;;;;;14.70;9.50;;;;;;;10.31;63.74;100580.90;130916;1257;107521;-74
2023/04/21 05:54:23;;;;;;;14.70;9.30;;;;;;;10.39;63.69;100585.08;130937;1257;106424;-73
2023/04/21 05:57:28;;;;;;;14.90;9.50;;;;;;;10.47;63.34;100585.41;131058;1255;107542;-73
2023/04/21 06:00:34;;;;;;;11.00;8.30;;;;;;;10.53;63.09;100583.99;130960;1266;107521;-74
2023/04/21 06:03:40;;;;;;;12.60;7.80;;;;;;;10.56;62.84;100582.68;131023;1256;107514;-73
2023/04/21 06:06:45;;;;;;;10.80;8.10;;;;;;;10.59;63.03;100579.33;130912;1251;108219;-74
2023/04/21 06:09:52;;;;;;;11.10;8.00;;;;;;;10.64;62.39;100580.46;130907;1251;107521;-73
2023/04/21 06:12:58;;;;;;;12.10;7.80;;;;;;;10.68;61.99;100577.08;131034;1251;107240;-73
2023/04/21 06:16:03;;;;;;;9.90;7.60;;;;;;;10.69;61.66;100574.45;131053;1251;107499;-73
2023/04/21 06:19:09;;;;;;;11.40;7.70;;;;;;;10.74;62.02;100578.32;131045;1266;106133;-73
2023/04/21 06:22:14;;;;;;;8.10;7.00;;;;;;;10.80;61.63;100575.54;130946;1251;107627;-73
2023/04/21 06:25:20;;;;;;;11.30;7.60;;;;;;;10.86;61.24;100571.25;130872;1257;107499;-73
2023/04/21 06:28:26;;;;;;;11.50;7.20;;;;;;;10.91;60.98;100570.55;131051;1255;106566;-73
2023/04/21 06:31:32;;;;;;;10.10;7.00;;;;;;;10.97;61.08;100570.49;130962;1257;107481;-73
2023/04/21 06:34:37;;;;;;;9.10;6.70;;;;;;;11.05;60.96;100572.84;131001;1255;107357;-73
2023/04/21 06:37:43;;;;;;;10.70;6.80;;;;;;;11.12;60.44;100572.14;130892;1255;107233;-74
2023/04/21 06:40:48;;;;;;;10.00;6.70;;;;;;;11.19;60.15;100568.80;130951;1264;107451;-74
2023/04/21 06:43:54;;;;;;;10.20;6.30;;;;;;;11.27;60.34;100571.23;130959;1256;107425;-73
2023/04/21 06:46:59;;;;;;;9.10;7.10;;;;;;;11.34;60.01;100566.23;130910;1251;107517;-73
2023/04/21 06:50:06;;;;;;;13.00;8.10;;;;;;;11.38;59.17;100565.98;131006;1256;107497;-73
2023/04/21 06:53:12;;;;;;;15.00;8.90;;;;;;;11.47;60.22;100566.40;130898;1255;107413;-73
2023/04/21 06:56:18;;;;;;;9.10;7.00;;;;;;;11.57;60.17;100564.02;130940;1256;107349;-73
2023/04/21 06:59:23;;;;;;;9.90;6.60;;;;;;;11.66;59.79;100562.19;130917;1251;107262;-73
2023/04/21 07:02:29;;;;;;;9.10;6.20;;;;;;;11.75;59.82;100565.60;130958;1256;107422;-73
2023/04/21 07:05:34;;;;;;;9.30;6.00;;;;;;;11.84;59.41;100564.22;130989;1255;105828;-73
2023/04/21 07:08:40;;;;;;;8.40;6.00;;;;;;;11.92;59.20;100560.02;130988;1251;107546;-73
2023/04/21 07:11:46;;;;;;;9.40;6.90;;;;;;;12.00;59.06;100563.36;130867;1251;108127;-73
2023/04/21 07:14:51;;;;;;;9.60;5.90;;;;;;;12.09;59.06;100561.85;130929;1258;107272;-73
2023/04/21 07:17:57;;;;;;;9.60;5.60;;;;;;;12.19;57.90;100563.73;130870;1251;107529;-73
2023/04/21 07:21:03;;;;;;;8.50;5.80;;;;;;;12.28;57.79;100560.81;131078;1256;107155;-73
2023/04/21 07:24:09;;;;;;;9.00;5.90;;;;;;;12.38;57.66;100560.32;130918;1257;106170;-73
2023/04/21 07:27:15;;;;;;;7.90;6.20;;;;;;;12.47;57.41;100559.10;130866;1256;107527;-73
2023/04/21 07:30:20;;;;;;;10.90;6.60;;;;;;;12.56;57.85;100559.52;131003;1264;107568;-73
2023/04/21 07:33:25;;;;;;;7.90;5.50;;;;;;;12.67;57.37;100560.99;130998;1255;107421;-73
2023/04/21 07:36:31;;;;;;;6.90;5.20;;;;;;;12.76;57.12;100555.48;130965;1255;107505;-73
2023/04/21 07:39:36;;;;;;;9.30;6.80;;;;;;;12.85;56.50;100550.67;130911;1256;107567;-74
2023/04/21 07:42:42;;;;;;;9.00;5.20;;;;;;;12.94;56.80;100552.05;130933;1256;107558;-73
2023/04/21 07:45:47;;;;;;;7.30;4.90;;;;;;;13.05;55.82;100552.16;130897;1256;108661;-73
2023/04/21 07:48:53;;;;;;;6.90;4.60;;;;;;;13.14;54.59;100547.83;130904;1251;107511;-73
2023/04/21 07:51:58;;;;;;;7.90;4.40;;;;;;;13.26;54.20;100550.52;130963;1255;107664;-73
2023/04/21 07:55:04;;;;;;;7.30;4.70;;;;;;;13.37;54.46;100546.32;130930;1256;107469;-73
2023/04/21 07:58:10;;;;;;;5.80;4.30;;;;;;;13.45;54.85;100543.83;130881;1267;106634;-74
2023/04/21 08:01:15;;;;;;;8.30;4.30;;;;;;;13.55;54.74;100543.45;130951;1256;107352;-73
2023/04/21 08:04:20;;;;;;;5.90;3.70;;;;;;;13.66;54.67;100540.10;131017;1267;107529;-73
2023/04/21 08:07:26;;;;;;;6.50;4.00;;;;;;;13.77;54.19;100544.52;130897;1256;107407;-73
2023/04/21 08:10:31;;;;;;;5.40;4.20;;;;;;;13.83;53.90;100530.22;131002;1251;107638;-73
2023/04/21 08:13:37;;;;;;;5.50;3.70;;;;;;;13.92;53.40;100529.66;130972;1256;107364;-73
2023/04/21 08:16:42;;;;;;;5.10;3.30;;;;;;;14.02;52.73;100534.23;130949;1251;108244;-74
2023/04/21 08:19:48;;;;;;;4.30;3.50;;;;;;;14.11;52.08;100532.52;130965;1255;107564;-74
2023/04/21 08:22:53;;;;;;;5.90;3.80;;;;;;;14.20;52.53;100526.91;130999;1255;107479;-73
2023/04/21 08:25:59;;;;;;;6.10;3.70;;;;;;;14.30;51.75;100529.45;130898;1251;106281;-73
2023/04/21 08:29:06;;;;;;;4.60;3.50;;;;;;;14.38;51.27;100524.06;131048;1256;107553;-73
2023/04/21 08:32:11;;;;;;;5.60;3.20;;;;;;;14.46;50.26;100529.91;130962;1255;106068;-73
2023/04/21 08:35:17;;;;;;;5.10;3.00;;;;;;;14.53;49.34;100527.71;130883;1256;107555;-73
2023/04/21 08:38:22;;;;;;;5.10;3.00;;;;;;;14.60;47.78;100531.81;130904;1255;107465;-73
2023/04/21 08:41:28;;;;;;;6.30;3.30;;;;;;;14.70;49.35;100528.55;131048;1255;107511;-73
2023/04/21 08:44:33;;;;;;;4.90;3.30;;;;;;;14.78;49.28;100527.12;130978;1255;106429;-73
2023/04/21 08:47:40;;;;;;;4.40;3.30;;;;;;;14.83;49.32;100525.59;130949;1256;107274;-73
2023/04/21 08:50:48;;;;;;;4.90;3.20;;;;;;;14.91;46.39;100527.03;130951;1256;107562;-74
2023/04/21 08:53:56;;;;;;;4.50;3.10;;;;;;;14.99;47.43;100527.61;130985;1256;107499;-73
2023/04/21 08:57:02;;;;;;;4.80;3.90;;;;;;;15.03;47.20;100528.38;130999;1255;105734;-73
2023/04/21 09:00:10;;;;;;;4.40;3.30;;;;;;;15.10;47.86;100523.61;130960;1253;106518;-73
2023/04/21 09:03:23;;;;;;;3.90;3.10;;;;;;;15.16;47.23;100524.42;131105;1256;107552;-74
2023/04/21 09:06:42;;;;;;;4.40;3.30;;;;;;;15.18;46.99;100516.79;131000;1255;107556;-73
2023/04/21 09:09:55;;;;;;;4.20;2.70;;;;;;;15.26;47.36;100516.70;131020;1255;107543;-74
2023/04/21 09:13:06;;;;;;;6.20;3.30;;;;;;;15.29;45.02;100517.16;131008;1256;107612;-73
2023/04/21 09:16:20;;;;;;;3.70;2.90;;;;;;;15.33;45.32;100509.73;131040;1252;107639;-73
2023/04/21 09:19:28;;;;;;;3.70;2.50;;;;;;;15.37;44.72;100506.38;131133;1255;107434;-74
2023/04/21 09:22:33;;;;;;;2.90;2.60;;;;;;;15.42;44.16;100509.20;131001;1256;107575;-73
2023/04/21 09:25:42;;;;;;;5.10;3.10;;;;;;;15.45;42.76;100502.56;131064;1251;107456;-73
2023/04/21 09:28:49;;;;;;;3.60;3.10;;;;;;;15.51;43.15;100498.83;131117;1251;107244;-74
2023/04/21 09:31:56;;;;;;;2.90;2.60;;;;;;;15.55;42.79;100500.89;131088;1255;107410;-73
2023/04/21 09:35:02;;;;;;;5.70;3.00;;;;;;;15.60;43.76;100495.84;131126;1251;107194;-73
2023/04/21 09:38:12;;;;;;;4.80;3.00;;;;;;;15.67;44.03;100503.20;131055;1251;105997;-73
2023/04/21 09:41:18;;;;;;;4.60;3.00;;;;;;;15.73;43.02;100493.26;130983;1257;107540;-73
2023/04/21 09:44:24;;;;;;;4.50;3.10;;;;;;;15.78;43.54;100498.81;130977;1256;107377;-73
2023/04/21 09:47:35;;;;;;;5.10;3.20;;;;;;;15.78;43.99;100494.80;130983;1256;107378;-73
2023/04/21 09:50:42;;;;;;;4.60;2.90;;;;;;;15.81;43.18;100500.00;131217;1256;107563;-73
2023/04/21 09:53:53;;;;;;;4.20;2.70;;;;;;;15.85;41.53;100498.42;130993;1255;107618;-73
2023/04/21 09:57:01;;;;;;;3.50;2.60;;;;;;;15.91;41.77;100496.55;130921;1256;122252;-73
2023/04/21 10:00:10;;;;;;;6.50;2.50;;;;;;;15.93;41.80;100487.88;131124;1256;107307;-73
2023/04/21 10:03:20;;;;;;;4.10;3.50;;;;;;;15.95;41.40;100486.39;131051;1251;107543;-75
2023/04/21 10:06:26;;;;;;;3.40;2.80;;;;;;;15.98;41.37;100486.73;130968;1253;107485;-73
2023/04/21 10:09:38;;;;;;;5.00;2.90;;;;;;;16.01;41.20;100478.29;130910;1256;107560;-73
2023/04/21 10:12:46;;;;;;;3.30;2.90;;;;;;;16.05;42.07;100476.73;130878;1257;107293;-73
2023/04/21 10:16:03;;;;;;;3.60;3.00;;;;;;;16.08;41.22;100470.00;130885;1256;108459;-73
2023/04/21 10:19:26;;;;;;;4.70;3.10;;;;;;;16.10;40.79;100473.26;131008;1256;107517;-73
2023/04/21 10:22:33;;;;;;;3.70;2.90;;;;;;;16.15;40.84;100471.25;130955;1256;106682;-73
2023/04/21 10:25:40;;;;;;;3.40;2.80;;;;;;;16.17;40.13;100465.98;130911;1252;107459;-73
2023/04/21 10:28:52;;;;;;;3.20;2.80;;;;;;;16.20;39.35;100465.07;130973;1262;107227;-73
2023/04/21 10:31:58;;;;;;;3.20;2.60;;;;;;;16.21;40.09;100466.20;130927;1255;107520;-73
2023/04/21 10:35:04;;;;;;;4.70;2.90;;;;;;;16.22;38.83;100461.05;131004;1256;107365;-73
2023/04/21 10:38:10;;;;;;;4.90;2.80;;;;;;;16.26;40.02;100457.70;130954;1253;107263;-73
2023/04/21 10:41:32;;;;;;;4.40;2.90;;;;;;;16.31;38.75;100453.17;130943;1253;107279;-73
2023/04/21 10:44:41;;;;;;;3.60;2.80;;;;;;;16.32;39.60;100446.23;130973;1255;107352;-73
2023/04/21 10:47:50;;;;;;;3.60;2.90;;;;;;;16.36;39.39;100448.20;130955;1255;107578;-73
2023/04/21 10:50:55;;;;;;;6.00;3.00;;;;;;;16.45;39.82;100446.04;130970;1253;107201;-73
2023/04/21 10:54:04;;;;;;;3.80;3.20;;;;;;;16.48;38.83;100443.48;130971;1256;107404;-73
2023/04/21 10:57:11;;;;;;;3.60;2.80;;;;;;;16.50;37.46;100449.62;130914;1256;107465;-73
2023/04/21 11:00:22;;;;;;;3.20;2.80;;;;;;;16.50;37.24;100439.73;130969;1256;107572;-73
2023/04/21 11:03:35;;;;;;;4.10;3.00;;;;;;;16.52;36.22;100437.10;130981;1251;107520;-73
2023/04/21 11:06:41;;;;;;;3.70;3.00;;;;;;;16.55;37.59;100433.69;131006;1256;107531;-73
2023/04/21 11:09:49;;;;;;;4.90;2.90;;;;;;;16.56;36.39;100423.42;131162;1256;107517;-73
2023/04/21 11:12:58;;;;;;;4.60;3.10;;;;;;;16.60;38.50;100422.92;130982;1255;106744;-73
2023/04/21 11:16:07;;;;;;;3.00;2.60;;;;;;;16.64;37.38;100422.36;131019;1255;107449;-73
2023/04/21 11:19:14;;;;;;;4.30;2.70;;;;;;;16.67;37.05;100413.73;131068;1252;107529;-73
2023/04/21 11:22:25;;;;;;;3.90;2.90;;;;;;;16.74;37.31;100413.48;131057;1256;107561;-75
2023/04/21 11:25:31;;;;;;;4.30;3.10;;;;;;;16.76;36.52;100412.25;131016;1255;107521;-73
2023/04/21 11:28:36;;;;;;;4.50;3.10;;;;;;;16.74;35.48;100411.20;130952;1251;107494;-73
2023/04/21 11:31:46;;;;;;;5.60;3.10;;;;;;;16.74;36.35;100406.77;130970;1255;107425;-74
2023/04/21 11:34:52;;;;;;;3.40;2.80;;;;;;;16.79;37.49;100405.95;131064;1251;106741;-73
2023/04/21 11:37:57;;;;;;;3.20;2.80;;;;;;;16.83;37.79;100397.19;131083;1256;107407;-73
2023/04/21 11:41:03;;;;;;;4.10;2.80;;;;;;;16.86;37.42;100390.89;131073;1251;105957;-73
2023/04/21 11:44:09;;;;;;;3.90;2.80;;;;;;;16.87;35.62;100390.66;130941;1251;107535;-73
2023/04/21 11:47:17;;;;;;;3.30;2.90;;;;;;;16.89;35.87;100389.35;130869;1256;106306;-73
2023/04/21 11:50:33;;;;;;;4.30;2.90;;;;;;;16.92;36.26;100385.73;130972;1251;107322;-72
2023/04/21 11:53:39;;;;;;;3.90;3.20;;;;;;;16.98;36.76;100383.35;130998;1251;108483;-73
2023/04/21 11:56:46;;;;;;;4.40;3.00;;;;;;;17.04;37.01;100383.44;130941;1256;107555;-74
2023/04/21 11:59:52;;;;;;;4.60;3.00;;;;;;;17.05;37.06;100379.59;130916;1256;107580;-73
2023/04/21 12:02:58;;;;;;;5.00;3.00;;;;;;;17.06;36.38;100372.59;130959;1253;107235;-74
2023/04/21 12:06:03;;;;;;;4.20;3.00;;;;;;;17.06;34.39;100374.79;131065;1256;107444;-75
2023/04/21 12:09:16;;;;;;;4.30;2.90;;;;;;;17.02;33.92;100364.22;130987;1253;107273;-74
2023/04/21 12:12:24;;;;;;;3.80;2.90;;;;;;;17.07;36.52;100367.70;130927;1253;107526;-74
2023/04/21 12:15:31;;;;;;;3.50;2.80;;;;;;;17.12;35.51;100361.49;131016;1256;107510;-74
2023/04/21 12:18:37;;;;;;;4.10;2.80;;;;;;;17.14;35.10;100364.29;131053;1256;107446;-72
2023/04/21 12:21:42;;;;;;;4.50;3.00;;;;;;;17.14;36.22;100358.70;131032;1251;109374;-72
2023/04/21 12:24:48;;;;;;;3.40;2.90;;;;;;;17.16;36.48;100357.22;131075;1256;106698;-72
2023/04/21 12:27:57;;;;;;;4.10;2.90;;;;;;;17.20;36.31;100356.59;131016;1256;107543;-73
2023/04/21 12:31:03;;;;;;;4.70;2.90;;;;;;;17.25;35.13;100352.28;130893;1255;107397;-72
2023/04/21 12:34:08;;;;;;;3.80;3.00;;;;;;;17.26;34.45;100351.25;131097;1253;107501;-73
2023/04/21 12:37:14;;;;;;;3.80;2.70;;;;;;;17.29;34.88;100350.36;130962;1255;107211;-72
2023/04/21 12:40:20;;;;;;;6.50;3.10;;;;;;;17.33;36.12;100339.06;130925;1254;107291;-72
2023/04/21 12:43:26;;;;;;;3.70;2.70;;;;;;;17.40;36.36;100334.14;130897;1259;107680;-72
2023/04/21 12:46:31;;;;;;;4.80;2.80;;;;;;;17.47;36.31;100329.88;130910;1255;107417;-72
2023/04/21 12:49:37;;;;;;;3.40;2.80;;;;;;;17.54;36.08;100327.27;130981;1256;107555;-73
2023/04/21 12:52:42;;;;;;;6.50;2.70;;;;;;;17.57;35.50;100325.08;130868;1251;107540;-73
2023/04/21 12:55:48;;;;;;;4.60;3.10;;;;;;;17.57;34.64;100327.49;131066;1256;107514;-76
2023/04/21 12:58:53;;;;;;;5.90;2.90;;;;;;;17.58;34.61;100327.79;130923;1255;107525;-75
2023/04/21 13:01:59;;;;;;;5.50;3.10;;;;;;;17.56;33.93;100321.67;130920;1253;107522;-75
2023/04/21 13:05:05;;;;;;;4.00;2.80;;;;;;;17.60;34.78;100319.42;131054;1251;107280;-75
2023/04/21 13:08:10;;;;;;;4.50;3.00;;;;;;;17.63;33.98;100317.00;131163;1255;107388;-73
2023/04/21 13:11:16;;;;;;;3.60;2.70;;;;;;;17.63;34.92;100309.81;131004;1251;108020;-72
2023/04/21 13:14:21;;;;;;;3.40;2.80;;;;;;;17.63;34.21;100310.23;130996;1251;107264;-71
2023/04/21 13:17:27;;;;;;;3.70;3.00;;;;;;;17.63;34.53;100304.38;131073;1253;107498;-71
2023/04/21 13:20:32;;;;;;;4.30;2.70;;;;;;;17.67;34.61;100310.05;130981;1256;107433;-71
2023/04/21 13:23:38;;;;;;;3.80;2.70;;;;;;;17.65;33.31;100304.92;130929;1256;107503;-71
2023/04/21 13:26:43;;;;;;;4.70;2.90;;;;;;;17.65;34.33;100302.48;130975;1253;106855;-71
2023/04/21 13:29:49;;;;;;;3.10;2.70;;;;;;;17.64;33.51;100296.71;130877;1252;107311;-72
2023/04/21 13:32:55;;;;;;;4.20;3.30;;;;;;;17.63;34.20;100290.59;130888;1256;107248;-72
2023/04/21 13:36:01;;;;;;;3.00;2.70;;;;;;;17.59;32.53;100290.36;131430;1251;108207;-72
2023/04/21 13:39:10;;;;;;;4.30;2.50;;;;;;;17.55;33.58;100287.60;130931;1253;107349;-72
2023/04/21 13:42:16;;;;;;;4.80;3.30;;;;;;;17.57;33.40;100283.05;130932;1256;107444;-72
2023/04/21 13:45:21;;;;;;;4.60;2.60;;;;;;;17.57;32.24;100278.81;130905;1255;107515;-72
2023/04/21 13:48:28;;;;;;;5.40;2.80;;;;;;;17.58;33.07;100276.33;130933;1251;106703;-72
2023/04/21 13:51:34;;;;;;;5.00;2.80;;;;;;;17.60;32.84;100277.27;130945;1256;107021;-72
2023/04/21 13:54:39;;;;;;;5.80;2.90;;;;;;;17.58;32.89;100274.64;130937;1255;106528;-72
2023/04/21 13:57:45;;;;;;;6.00;3.70;;;;;;;17.60;33.36;100275.34;130883;1256;107590;-72
2023/04/21 14:00:51;;;;;;;3.00;2.70;;;;;;;17.59;32.54;100271.69;130880;1251;107250;-72